Ettrick, Wisconsin
Current Conditions -  °F | °C
As of 12:53 PM on Tuesday 21 Oct 2014 (Local Time) from KLSE Reporting Station
Clear Clear  
Wind Chill: 54°   Ceiling: Unl
Heat Index: 54°   Visibility: 10mi
Dew Point: 37°   Wind: 7mph
Humidity: 53%   Direction: 70°ENE
Pressure: 30.22"   Gusts: NA
Location:  44.17°N, 91.27°W
Report Text: KLSE 211753Z 07006KT 10SM CLR 12/03 A3022 RMK AO2 SLP238 I6000 T01220028 10128 20022 58005
Loading
Personal Weather Stations






























Interactive Weather Map New forecast layout! Learn more

10-Day Weather Forecast

Advertisements
Track Severe Weather on mobile